createdAt,value
2022-10-12T00:00:39.555Z,101837.00
2022-10-12T00:03:07.275Z,101839.00
2022-10-12T00:05:35.023Z,101841.00
2022-10-12T00:08:02.777Z,101841.00
2022-10-12T00:10:30.484Z,101837.00
2022-10-12T00:12:59.818Z,101824.00
2022-10-12T00:15:27.632Z,101847.00
2022-10-12T00:17:55.396Z,101847.00
2022-10-12T00:20:23.161Z,101854.00
2022-10-12T00:22:50.918Z,101853.00
2022-10-12T00:25:18.691Z,101842.00
2022-10-12T00:27:46.859Z,101850.00
2022-10-12T00:30:16.170Z,101847.00
2022-10-12T00:32:44.058Z,101848.00
2022-10-12T00:35:11.737Z,101848.00
2022-10-12T00:37:40.106Z,101846.00
2022-10-12T00:40:09.074Z,101860.00
2022-10-12T00:42:36.770Z,101851.00
2022-10-12T00:45:05.133Z,101842.00
2022-10-12T00:47:37.046Z,101842.00
2022-10-12T00:50:10.812Z,101852.00
2022-10-12T00:52:43.433Z,101837.00
2022-10-12T00:55:13.715Z,101844.00
2022-10-12T00:57:46.727Z,101842.00
2022-10-12T01:00:15.796Z,101848.00
2022-10-12T01:02:46.207Z,101845.00
2022-10-12T01:05:14.817Z,101847.00
2022-10-12T01:07:42.813Z,101841.00
2022-10-12T01:10:10.960Z,101846.00
2022-10-12T01:12:40.990Z,101851.00
2022-10-12T01:15:09.810Z,101841.00
2022-10-12T01:17:45.762Z,101845.00
2022-10-12T01:20:35.852Z,101849.00
2022-10-12T01:23:27.874Z,101844.00
2022-10-12T01:26:13.235Z,101840.00
2022-10-12T01:28:50.693Z,101837.00
2022-10-12T01:31:32.601Z,101844.00
2022-10-12T01:34:05.784Z,101839.00
2022-10-12T01:36:37.959Z,101844.00
2022-10-12T01:39:13.450Z,101839.00
2022-10-12T01:41:47.952Z,101835.00
2022-10-12T01:44:21.566Z,101832.00
2022-10-12T01:46:53.187Z,101823.00
2022-10-12T01:49:25.897Z,101833.00
2022-10-12T01:52:28.557Z,101824.00
2022-10-12T01:55:15.457Z,101828.00
2022-10-12T01:57:53.905Z,101834.00
2022-10-12T02:00:21.937Z,101823.00
2022-10-12T02:02:59.365Z,101834.00
2022-10-12T02:05:36.820Z,101825.00
2022-10-12T02:08:10.654Z,101823.00
2022-10-12T02:10:41.775Z,101822.00
2022-10-12T02:13:12.783Z,101817.00
2022-10-12T02:15:42.707Z,101817.00
2022-10-12T02:18:15.479Z,101814.00
2022-10-12T02:20:43.692Z,101814.00
2022-10-12T02:23:12.381Z,101819.00
2022-10-12T02:25:40.530Z,101816.00
2022-10-12T02:28:10.842Z,101816.00
2022-10-12T02:30:44.424Z,101810.00
2022-10-12T02:33:18.270Z,101811.00
2022-10-12T02:35:52.139Z,101798.00
2022-10-12T02:38:26.538Z,101802.00
2022-10-12T02:40:58.680Z,101796.00
2022-10-12T02:43:30.472Z,101798.00
2022-10-12T02:46:01.057Z,101792.00
2022-10-12T02:48:30.846Z,101802.00
2022-10-12T02:51:00.087Z,101788.00
2022-10-12T02:53:30.740Z,101798.00
2022-10-12T02:56:02.757Z,101793.00
2022-10-12T02:58:30.501Z,101786.00
2022-10-12T03:00:58.365Z,101787.00
2022-10-12T03:03:26.714Z,101794.00
2022-10-12T03:05:55.922Z,101789.00
2022-10-12T03:08:23.799Z,101789.00
2022-10-12T03:10:51.524Z,101778.00
2022-10-12T03:13:19.522Z,101775.00
2022-10-12T03:15:47.221Z,101779.00
2022-10-12T03:18:14.953Z,101774.00
2022-10-12T03:20:42.641Z,101789.00
2022-10-12T03:23:11.716Z,101769.00
2022-10-12T03:25:39.390Z,101780.00
2022-10-12T03:28:07.226Z,101783.00
2022-10-12T03:30:34.995Z,101785.00
2022-10-12T03:33:02.691Z,101770.00
2022-10-12T03:35:30.796Z,101780.00
2022-10-12T03:37:58.529Z,101772.00
2022-10-12T03:40:27.639Z,101765.00
2022-10-12T03:42:55.387Z,101763.00
2022-10-12T03:45:23.106Z,101759.00
2022-10-12T03:47:51.278Z,101772.00
2022-10-12T03:50:19.357Z,101754.00
2022-10-12T03:52:47.110Z,101760.00
2022-10-12T03:55:15.559Z,101761.00
2022-10-12T03:57:45.342Z,101755.00
2022-10-12T04:00:14.514Z,101755.00
2022-10-12T04:02:42.243Z,101762.00
2022-10-12T04:05:10.518Z,101766.00
2022-10-12T04:07:38.713Z,101764.00
2022-10-12T04:10:08.258Z,101768.00
2022-10-12T04:12:36.027Z,101761.00
2022-10-12T04:15:05.688Z,101754.00
2022-10-12T04:17:33.557Z,101758.00
2022-10-12T04:20:01.250Z,101766.00
2022-10-12T04:22:29.004Z,101762.00
2022-10-12T04:24:56.748Z,101759.00
2022-10-12T04:27:24.459Z,101758.00
2022-10-12T04:29:52.354Z,101756.00
2022-10-12T04:32:21.547Z,101752.00
2022-10-12T04:34:49.382Z,101752.00
2022-10-12T04:37:17.498Z,101753.00
2022-10-12T04:39:45.252Z,101748.00
2022-10-12T04:42:12.972Z,101750.00
2022-10-12T04:44:40.683Z,101744.00
2022-10-12T04:47:08.853Z,101747.00
2022-10-12T04:49:37.964Z,101746.00
2022-10-12T04:52:05.921Z,101761.00
2022-10-12T04:54:33.849Z,101747.00
2022-10-12T04:57:01.669Z,101751.00
2022-10-12T04:59:29.403Z,101747.00
2022-10-12T05:01:57.213Z,101762.00
2022-10-12T05:04:25.165Z,101744.00
2022-10-12T05:06:54.690Z,101746.00
2022-10-12T05:09:22.469Z,101750.00
2022-10-12T05:11:50.175Z,101740.00
2022-10-12T05:14:17.901Z,101742.00
2022-10-12T05:16:45.662Z,101742.00
2022-10-12T05:19:13.460Z,101750.00
2022-10-12T05:21:42.308Z,101754.00
2022-10-12T05:24:12.221Z,101744.00
2022-10-12T05:26:40.105Z,101723.00
2022-10-12T05:29:07.962Z,101749.00
2022-10-12T05:31:35.715Z,101749.00
2022-10-12T05:34:03.483Z,101758.00
2022-10-12T05:36:31.216Z,101744.00
2022-10-12T05:38:58.935Z,101740.00
2022-10-12T05:41:28.005Z,101744.00
2022-10-12T05:43:55.750Z,101748.00
2022-10-12T05:46:23.449Z,101751.00
2022-10-12T05:48:51.201Z,101739.00
2022-10-12T05:51:19.086Z,101735.00
2022-10-12T05:53:46.772Z,101741.00
2022-10-12T05:56:14.662Z,101728.00
2022-10-12T05:58:43.716Z,101739.00
2022-10-12T06:01:13.505Z,101741.00
2022-10-12T06:03:41.765Z,101736.00
2022-10-12T06:06:09.571Z,101743.00
2022-10-12T06:08:37.322Z,101728.00
2022-10-12T06:11:05.555Z,101731.00
2022-10-12T06:13:33.442Z,101735.00
2022-10-12T06:16:02.527Z,101744.00
2022-10-12T06:18:30.359Z,101735.00
2022-10-12T06:23:46.219Z,101735.00
2022-10-12T06:26:14.201Z,101730.00
2022-10-12T06:28:41.980Z,101732.00
2022-10-12T06:31:11.613Z,101733.00
2022-10-12T06:33:39.370Z,101732.00
2022-10-12T06:36:07.394Z,101725.00
2022-10-12T06:38:35.190Z,101724.00
2022-10-12T06:41:02.913Z,101727.00
2022-10-12T06:43:30.733Z,101732.00
2022-10-12T06:46:01.543Z,101728.00
2022-10-12T06:48:31.191Z,101736.00
2022-10-12T06:50:59.003Z,101723.00
2022-10-12T06:53:28.683Z,101726.00
2022-10-12T06:55:56.420Z,101740.00
2022-10-12T06:58:24.260Z,101734.00
2022-10-12T07:00:52.411Z,101735.00
2022-10-12T07:03:20.403Z,101733.00
2022-10-12T07:05:49.522Z,101734.00
2022-10-12T07:08:17.747Z,101743.00
2022-10-12T07:10:45.520Z,101744.00
2022-10-12T07:13:13.293Z,101748.00
2022-10-12T07:15:41.026Z,101750.00
2022-10-12T07:18:09.022Z,101739.00
2022-10-12T07:20:39.953Z,101739.00
2022-10-12T07:23:09.182Z,101741.00
2022-10-12T07:25:36.902Z,101736.00
2022-10-12T07:28:06.093Z,101734.00
2022-10-12T07:30:33.908Z,101739.00
2022-10-12T07:33:01.720Z,101733.00
2022-10-12T07:35:29.464Z,101731.00
2022-10-12T07:37:57.285Z,101728.00
2022-10-12T07:40:26.968Z,101731.00
2022-10-12T07:43:14.931Z,101736.00
2022-10-12T07:45:42.393Z,101744.00
2022-10-12T07:48:10.568Z,101741.00
2022-10-12T07:50:38.372Z,101756.00
2022-10-12T07:53:06.151Z,101746.00
2022-10-12T07:55:35.205Z,101742.00
2022-10-12T07:58:02.967Z,101748.00
2022-10-12T08:00:32.075Z,101750.00
2022-10-12T08:02:59.890Z,101742.00
2022-10-12T08:05:28.013Z,101743.00
2022-10-12T08:07:55.826Z,101744.00
2022-10-12T08:10:23.772Z,101752.00
2022-10-12T08:12:52.891Z,101748.00
2022-10-12T08:15:20.804Z,101756.00
2022-10-12T08:17:48.588Z,101750.00
2022-10-12T08:20:16.360Z,101755.00
2022-10-12T08:22:44.102Z,101770.00
2022-10-12T08:25:11.856Z,101760.00
2022-10-12T08:27:39.914Z,101744.00
2022-10-12T08:30:10.508Z,101762.00
2022-10-12T08:32:38.209Z,101763.00
2022-10-12T08:35:06.714Z,101772.00
2022-10-12T08:37:34.435Z,101767.00
2022-10-12T08:40:03.617Z,101759.00
2022-10-12T08:42:40.606Z,101753.00
2022-10-12T08:45:39.394Z,101759.00
2022-10-12T08:48:13.848Z,101769.00
2022-10-12T08:50:47.083Z,101749.00
2022-10-12T08:53:20.317Z,101760.00
2022-10-12T08:55:48.267Z,101772.00
2022-10-12T08:58:20.484Z,101749.00
2022-10-12T09:00:53.212Z,101747.00
2022-10-12T09:03:34.205Z,101750.00
2022-10-12T09:06:11.765Z,101754.00
2022-10-12T09:08:51.289Z,101746.00
2022-10-12T09:11:37.438Z,101745.00
2022-10-12T09:14:09.532Z,101743.00
2022-10-12T09:16:43.920Z,101754.00
2022-10-12T09:19:19.358Z,101743.00
2022-10-12T09:21:48.729Z,101738.00
2022-10-12T09:24:20.131Z,101745.00
2022-10-12T09:26:51.760Z,101746.00
2022-10-12T09:29:25.571Z,101745.00
2022-10-12T09:32:16.811Z,101741.00
2022-10-12T09:34:45.833Z,101741.00
2022-10-12T09:37:19.010Z,101738.00
2022-10-12T09:39:46.872Z,101742.00
2022-10-12T09:42:14.750Z,101729.00
2022-10-12T09:44:47.238Z,101727.00
2022-10-12T09:47:28.338Z,101728.00
2022-10-12T09:49:58.762Z,101732.00
2022-10-12T09:52:30.548Z,101732.00
2022-10-12T09:55:03.766Z,101728.00
2022-10-12T09:57:36.990Z,101728.00
2022-10-12T10:00:08.535Z,101724.00
2022-10-12T10:02:48.838Z,101718.00
2022-10-12T10:05:25.678Z,101720.00
2022-10-12T10:07:53.774Z,101719.00
2022-10-12T10:10:29.418Z,101724.00
2022-10-12T10:13:01.285Z,101715.00
2022-10-12T10:15:32.359Z,101719.00
2022-10-12T10:18:03.786Z,101712.00
2022-10-12T10:20:34.176Z,101721.00
2022-10-12T10:23:04.631Z,101716.00
2022-10-12T10:25:35.013Z,101702.00
2022-10-12T10:28:23.063Z,101711.00
2022-10-12T10:30:59.971Z,101711.00
2022-10-12T10:33:30.105Z,101718.00
2022-10-12T10:36:04.354Z,101699.00
2022-10-12T10:38:34.097Z,101700.00
2022-10-12T10:41:06.871Z,101700.00
2022-10-12T10:43:35.762Z,101698.00
2022-10-12T10:46:05.569Z,101701.00
2022-10-12T10:48:51.240Z,101702.00
2022-10-12T10:51:19.052Z,101705.00
2022-10-12T10:53:48.935Z,101690.00
2022-10-12T10:56:21.811Z,101689.00
2022-10-12T10:58:52.597Z,101672.00
2022-10-12T11:01:23.861Z,101685.00
2022-10-12T11:03:57.651Z,101682.00
2022-10-12T11:06:37.006Z,101683.00
2022-10-12T11:09:08.552Z,101674.00
2022-10-12T11:11:39.267Z,101671.00
2022-10-12T11:14:15.558Z,101676.00
2022-10-12T11:16:48.159Z,101664.00
2022-10-12T11:19:27.350Z,101662.00
2022-10-12T11:21:58.852Z,101664.00
2022-10-12T11:24:33.478Z,101659.00
2022-10-12T11:27:07.200Z,101663.00
2022-10-12T11:29:36.556Z,101658.00
2022-10-12T11:32:07.792Z,101658.00
2022-10-12T11:34:46.461Z,101658.00
2022-10-12T11:37:20.034Z,101642.00
2022-10-12T11:39:53.542Z,101645.00
2022-10-12T11:42:28.729Z,101640.00
2022-10-12T11:44:56.452Z,101632.00
2022-10-12T11:47:33.454Z,101631.00
2022-10-12T11:50:06.352Z,101629.00
2022-10-12T11:52:39.175Z,101623.00
2022-10-12T11:55:26.240Z,101627.00
2022-10-12T11:57:56.774Z,101622.00
2022-10-12T12:00:30.909Z,101618.00
2022-10-12T12:03:06.046Z,101615.00
2022-10-12T12:05:35.212Z,101609.00
2022-10-12T12:08:02.918Z,101612.00
2022-10-12T12:10:53.565Z,101601.00
2022-10-12T12:13:26.822Z,101606.00
2022-10-12T12:16:33.624Z,101593.00
2022-10-12T12:19:32.633Z,101599.00
2022-10-12T12:22:36.801Z,101599.00
2022-10-12T12:25:31.838Z,101595.00
2022-10-12T12:28:06.543Z,101589.00
2022-10-12T12:30:37.792Z,101590.00
2022-10-12T12:33:26.570Z,101594.00
2022-10-12T12:35:56.859Z,101587.00
2022-10-12T12:38:29.004Z,101573.00
2022-10-12T12:41:06.398Z,101575.00
2022-10-12T12:43:58.645Z,101569.00
2022-10-12T12:46:42.758Z,101575.00
2022-10-12T12:49:27.371Z,101565.00
2022-10-12T12:51:57.878Z,101570.00
2022-10-12T12:54:28.103Z,101562.00
2022-10-12T12:57:33.844Z,101561.00
2022-10-12T13:00:14.294Z,101555.00
2022-10-12T13:03:18.955Z,101559.00
2022-10-12T13:06:44.256Z,101549.00
2022-10-12T13:09:40.713Z,101556.00
2022-10-12T13:12:38.754Z,101550.00
2022-10-12T13:15:29.894Z,101550.00
2022-10-12T13:18:34.558Z,101553.00
2022-10-12T13:21:06.209Z,101544.00
2022-10-12T13:23:34.951Z,101540.00
2022-10-12T13:26:09.355Z,101531.00
2022-10-12T13:28:42.424Z,101536.00
2022-10-12T13:31:17.756Z,101529.00
2022-10-12T13:33:50.483Z,101536.00
2022-10-12T13:36:22.808Z,101526.00
2022-10-12T13:38:55.913Z,101528.00
2022-10-12T13:41:26.553Z,101515.00
2022-10-12T13:43:56.537Z,101517.00
2022-10-12T13:46:41.758Z,101514.00
2022-10-12T13:49:18.813Z,101511.00
2022-10-12T13:51:49.581Z,101513.00
2022-10-12T13:54:19.440Z,101512.00
2022-10-12T13:56:51.357Z,101509.00
2022-10-12T13:59:22.341Z,101502.00
2022-10-12T14:01:52.820Z,101495.00
2022-10-12T14:04:20.823Z,101506.00
2022-10-12T14:06:55.067Z,101499.00
2022-10-12T14:09:24.720Z,101497.00
2022-10-12T14:11:55.649Z,101501.00
2022-10-12T14:14:29.608Z,101496.00
2022-10-12T14:16:57.507Z,101489.00
2022-10-12T14:19:35.539Z,101486.00
2022-10-12T14:22:04.160Z,101480.00
2022-10-12T14:24:32.190Z,101485.00
2022-10-12T14:27:02.871Z,101489.00
2022-10-12T14:29:36.695Z,101480.00
2022-10-12T14:32:06.652Z,101483.00
2022-10-12T14:34:46.518Z,101472.00
2022-10-12T14:37:28.239Z,101463.00
2022-10-12T14:40:00.433Z,101468.00
2022-10-12T14:42:32.831Z,101473.00
2022-10-12T14:45:01.146Z,101470.00
2022-10-12T14:47:31.929Z,101460.00
2022-10-12T14:50:01.396Z,101462.00
2022-10-12T14:52:34.084Z,101469.00
2022-10-12T14:55:01.840Z,101464.00
2022-10-12T14:57:33.050Z,101466.00
2022-10-12T15:00:00.962Z,101461.00
2022-10-12T15:02:31.655Z,101464.00
2022-10-12T15:05:00.407Z,101461.00
2022-10-12T15:07:31.584Z,101460.00
2022-10-12T15:09:59.884Z,101457.00
2022-10-12T15:12:29.941Z,101464.00
2022-10-12T15:15:02.007Z,101460.00
2022-10-12T15:17:29.803Z,101451.00
2022-10-12T15:19:57.791Z,101448.00
2022-10-12T15:22:29.156Z,101440.00
2022-10-12T15:24:57.066Z,101432.00
2022-10-12T15:27:24.805Z,101425.00
2022-10-12T15:29:52.619Z,101435.00
2022-10-12T15:32:21.779Z,101426.00
2022-10-12T15:34:50.760Z,101420.00
2022-10-12T15:37:18.546Z,101413.00
2022-10-12T15:39:46.693Z,101417.00
2022-10-12T15:42:16.491Z,101415.00
2022-10-12T15:44:44.489Z,101413.00
2022-10-12T15:47:12.414Z,101405.00
2022-10-12T15:49:42.106Z,101406.00
2022-10-12T15:52:11.401Z,101396.00
2022-10-12T15:54:39.302Z,101394.00
2022-10-12T15:57:08.004Z,101401.00
2022-10-12T15:59:36.077Z,101393.00
2022-10-12T16:02:03.897Z,101397.00
2022-10-12T16:04:31.651Z,101405.00
2022-10-12T16:07:01.282Z,101397.00
2022-10-12T16:09:29.035Z,101403.00
2022-10-12T16:11:56.757Z,101397.00
2022-10-12T16:14:24.481Z,101395.00
2022-10-12T16:16:52.264Z,101392.00
2022-10-12T16:19:20.035Z,101396.00
2022-10-12T16:21:47.807Z,101399.00
2022-10-12T16:24:17.762Z,101389.00
2022-10-12T16:26:47.327Z,101394.00
2022-10-12T16:29:15.036Z,101395.00
2022-10-12T16:34:16.164Z,101392.00
2022-10-12T16:36:43.986Z,101401.00
2022-10-12T16:39:11.739Z,101386.00
2022-10-12T16:41:40.821Z,101395.00
2022-10-12T16:44:08.561Z,101387.00
2022-10-12T16:46:36.986Z,101392.00
2022-10-12T16:49:05.091Z,101394.00
2022-10-12T16:51:32.855Z,101394.00
2022-10-12T16:54:00.782Z,101390.00
2022-10-12T16:56:28.536Z,101391.00
2022-10-12T16:58:57.684Z,101385.00
2022-10-12T17:01:25.490Z,101391.00
2022-10-12T17:03:54.413Z,101398.00
2022-10-12T17:06:22.206Z,101390.00
2022-10-12T17:08:49.947Z,101392.00
2022-10-12T17:11:17.951Z,101389.00
2022-10-12T17:13:49.468Z,101391.00
2022-10-12T17:16:37.029Z,101401.00
2022-10-12T17:19:05.041Z,101396.00
2022-10-12T17:21:32.812Z,101391.00
2022-10-12T17:24:01.910Z,101389.00
2022-10-12T17:26:30.510Z,101391.00
2022-10-12T17:28:58.340Z,101390.00
2022-10-12T17:31:28.639Z,101378.00
2022-10-12T17:33:56.385Z,101384.00
2022-10-12T17:36:27.985Z,101386.00
2022-10-12T17:38:59.661Z,101382.00
2022-10-12T17:41:29.049Z,101379.00
2022-10-12T17:43:57.054Z,101382.00
2022-10-12T17:46:25.085Z,101392.00
2022-10-12T17:48:54.156Z,101386.00
2022-10-12T17:51:21.874Z,101374.00
2022-10-12T17:53:49.582Z,101386.00
2022-10-12T17:56:17.823Z,101382.00
2022-10-12T17:58:45.528Z,101384.00
2022-10-12T18:01:15.517Z,101385.00
2022-10-12T18:03:46.354Z,101380.00
2022-10-12T18:06:17.258Z,101377.00
2022-10-12T18:08:45.342Z,101369.00
2022-10-12T18:11:13.406Z,101368.00
2022-10-12T18:13:41.185Z,101361.00
2022-10-12T18:16:11.375Z,101371.00
2022-10-12T18:18:39.868Z,101377.00
2022-10-12T18:21:08.621Z,101381.00
2022-10-12T18:23:38.369Z,101380.00
2022-10-12T18:26:08.049Z,101373.00
2022-10-12T18:28:36.243Z,101368.00
2022-10-12T18:31:04.627Z,101376.00
2022-10-12T18:33:33.082Z,101360.00
2022-10-12T18:36:04.311Z,101381.00
2022-10-12T18:38:32.737Z,101374.00
2022-10-12T18:41:05.842Z,101377.00
2022-10-12T18:43:33.960Z,101379.00
2022-10-12T18:46:05.158Z,101389.00
2022-10-12T18:48:32.956Z,101376.00
2022-10-12T18:51:05.306Z,101377.00
2022-10-12T18:53:33.359Z,101382.00
2022-10-12T18:56:03.056Z,101391.00
2022-10-12T18:58:32.782Z,101387.00
2022-10-12T19:01:03.359Z,101386.00
2022-10-12T19:03:31.125Z,101371.00
2022-10-12T19:06:05.363Z,101373.00
2022-10-12T19:08:33.132Z,101366.00
2022-10-12T19:11:00.937Z,101368.00
2022-10-12T19:13:29.147Z,101376.00
2022-10-12T19:15:58.302Z,101369.00
2022-10-12T19:18:26.071Z,101369.00
2022-10-12T19:20:53.833Z,101371.00
2022-10-12T19:23:21.550Z,101366.00
2022-10-12T19:25:49.263Z,101367.00
2022-10-12T19:28:17.063Z,101363.00
2022-10-12T19:30:44.835Z,101380.00
2022-10-12T19:33:13.963Z,101378.00
2022-10-12T19:35:41.684Z,101374.00
2022-10-12T19:38:09.405Z,101364.00
2022-10-12T19:40:37.893Z,101370.00
2022-10-12T19:43:06.854Z,101362.00
2022-10-12T19:45:39.951Z,101364.00
2022-10-12T19:48:07.873Z,101357.00
2022-10-12T19:50:37.039Z,101366.00
2022-10-12T19:53:04.935Z,101360.00
2022-10-12T19:55:34.056Z,101346.00
2022-10-12T19:58:02.277Z,101341.00
2022-10-12T20:00:30.352Z,101345.00
2022-10-12T20:02:58.084Z,101338.00
2022-10-12T20:05:25.948Z,101336.00
2022-10-12T20:07:55.099Z,101334.00
2022-10-12T20:10:22.913Z,101329.00
2022-10-12T20:12:50.692Z,101327.00
2022-10-12T20:15:18.495Z,101335.00
2022-10-12T20:17:46.234Z,101337.00
2022-10-12T20:20:13.971Z,101337.00
2022-10-12T20:22:41.679Z,101346.00
2022-10-12T20:25:10.835Z,101337.00
2022-10-12T20:27:38.601Z,101346.00
2022-10-12T20:30:07.762Z,101332.00
2022-10-12T20:32:35.989Z,101341.00
2022-10-12T20:35:04.010Z,101341.00
2022-10-12T20:37:33.278Z,101339.00
2022-10-12T20:40:01.045Z,101339.00
2022-10-12T20:42:30.447Z,101341.00
2022-10-12T20:44:58.179Z,101343.00
2022-10-12T20:47:27.177Z,101320.00
2022-10-12T20:49:55.032Z,101332.00
2022-10-12T20:52:22.725Z,101325.00
2022-10-12T20:54:52.043Z,101324.00
2022-10-12T20:57:19.965Z,101316.00
2022-10-12T20:59:49.234Z,101312.00
2022-10-12T21:02:17.555Z,101316.00
2022-10-12T21:04:45.832Z,101314.00
2022-10-12T21:07:14.296Z,101310.00
2022-10-12T21:09:42.510Z,101316.00
2022-10-12T21:12:10.249Z,101324.00
2022-10-12T21:14:38.027Z,101310.00
2022-10-12T21:17:07.146Z,101307.00
2022-10-12T21:19:34.955Z,101304.00
2022-10-12T21:22:02.685Z,101307.00
2022-10-12T21:24:30.588Z,101315.00
2022-10-12T21:26:58.271Z,101308.00
2022-10-12T21:29:26.251Z,101309.00
2022-10-12T21:31:53.938Z,101308.00
2022-10-12T21:34:23.676Z,101306.00
2022-10-12T21:36:51.394Z,101304.00
2022-10-12T21:39:19.125Z,101300.00
2022-10-12T21:41:48.524Z,101304.00
2022-10-12T21:44:16.323Z,101304.00
2022-10-12T21:46:44.064Z,101297.00
2022-10-12T21:49:12.443Z,101301.00
2022-10-12T21:51:41.605Z,101306.00
2022-10-12T21:54:09.307Z,101293.00
2022-10-12T21:56:37.813Z,101291.00
2022-10-12T21:59:06.711Z,101301.00
2022-10-12T22:01:36.484Z,101301.00
2022-10-12T22:04:06.450Z,101308.00
2022-10-12T22:06:34.823Z,101308.00
2022-10-12T22:09:06.841Z,101304.00
2022-10-12T22:11:36.008Z,101289.00
2022-10-12T22:14:06.507Z,101291.00
2022-10-12T22:16:35.044Z,101295.00
2022-10-12T22:19:04.389Z,101290.00
2022-10-12T22:21:32.468Z,101291.00
2022-10-12T22:24:01.958Z,101292.00
2022-10-12T22:26:31.755Z,101300.00
2022-10-12T22:29:01.040Z,101290.00
2022-10-12T22:31:28.831Z,101289.00
2022-10-12T22:33:57.220Z,101295.00
2022-10-12T22:36:24.999Z,101295.00
2022-10-12T22:38:52.973Z,101288.00
2022-10-12T22:41:21.796Z,101281.00
2022-10-12T22:43:53.124Z,101278.00
2022-10-12T22:46:22.430Z,101283.00
2022-10-12T22:48:50.754Z,101276.00
2022-10-12T22:51:21.786Z,101289.00
2022-10-12T22:53:50.307Z,101290.00
2022-10-12T22:56:19.341Z,101281.00
2022-10-12T22:58:48.797Z,101271.00
2022-10-12T23:01:18.596Z,101270.00
2022-10-12T23:03:46.492Z,101272.00
2022-10-12T23:06:15.181Z,101268.00
2022-10-12T23:08:42.998Z,101274.00
2022-10-12T23:11:12.991Z,101276.00
2022-10-12T23:13:42.449Z,101271.00
2022-10-12T23:16:12.966Z,101272.00
2022-10-12T23:18:42.275Z,101263.00
2022-10-12T23:21:11.711Z,101265.00
2022-10-12T23:23:40.675Z,101255.00
2022-10-12T23:26:11.598Z,101268.00
2022-10-12T23:28:39.653Z,101271.00
2022-10-12T23:31:08.846Z,101272.00
2022-10-12T23:33:36.783Z,101260.00
2022-10-12T23:36:08.150Z,101263.00
2022-10-12T23:38:37.120Z,101262.00
2022-10-12T23:41:05.373Z,101255.00
2022-10-12T23:43:33.525Z,101257.00
2022-10-12T23:46:01.397Z,101251.00
2022-10-12T23:48:29.360Z,101247.00
2022-10-12T23:50:57.097Z,101249.00
2022-10-12T23:53:26.522Z,101251.00
2022-10-12T23:55:55.208Z,101259.00
2022-10-12T23:58:23.519Z,101251.00
